Time;durP1;ratioP1;P1;durP2;ratioP2;P2;SDS_P1;SDS_P2;PMS_P1;PMS_P2;Temp;Humidity;BMP_temperature;BMP_pressure;BME280_temperature;BME280_humidity;BME280_pressure;Samples;Min_cycle;Max_cycle;Signal;HPM_P1;HPM_P2
2021/12/04 00:02:05;;;;;;;24.58;14.40;;;5.90;53.90;;;;;;4941257;29;20031;-92
2021/12/04 00:04:37;;;;;;;23.92;12.95;;;5.70;54.90;;;;;;4941098;29;20027;-87
2021/12/04 00:07:05;;;;;;;24.85;12.32;;;5.70;55.10;;;;;;4941139;29;20027;-92
2021/12/04 00:09:32;;;;;;;21.83;12.57;;;5.70;55.70;;;;;;4940761;29;20027;-94
2021/12/04 00:12:01;;;;;;;25.90;13.18;;;5.80;55.60;;;;;;4941160;29;20027;-87
2021/12/04 00:14:28;;;;;;;24.10;13.00;;;5.70;55.20;;;;;;4940887;29;20023;-94
2021/12/04 00:16:54;;;;;;;22.02;11.82;;;5.70;55.40;;;;;;4940478;29;20039;-95
2021/12/04 00:19:21;;;;;;;24.92;13.73;;;5.70;55.40;;;;;;4940794;29;20379;-94
2021/12/04 00:21:46;;;;;;;27.08;13.68;;;5.70;55.40;;;;;;4940563;29;20027;-95
2021/12/04 00:24:12;;;;;;;26.30;13.45;;;5.70;55.60;;;;;;4940498;29;20024;-93
2021/12/04 00:26:39;;;;;;;24.80;12.95;;;6.00;55.10;;;;;;4940545;29;20054;-95
2021/12/04 00:29:06;;;;;;;23.80;13.60;;;6.20;54.50;;;;;;4941314;29;20058;-91
2021/12/04 00:31:32;;;;;;;25.08;14.60;;;6.10;53.80;;;;;;4940931;29;20031;-93
2021/12/04 00:33:58;;;;;;;33.38;16.42;;;5.70;54.30;;;;;;4942211;29;20019;-95
2021/12/04 00:36:35;;;;;;;32.92;16.60;;;5.40;55.10;;;;;;4942633;29;20032;-91
2021/12/04 00:49:59;;;;;;;28.05;15.35;;;5.10;55.90;;;;;;4958028;29;20150;-93
2021/12/04 00:52:24;;;;;;;26.58;14.38;;;4.90;56.90;;;;;;4940695;29;20113;-90
2021/12/04 00:54:50;;;;;;;27.25;13.52;;;5.30;56.40;;;;;;4939735;29;20419;-92
2021/12/04 00:57:17;;;;;;;25.25;13.48;;;5.10;56.50;;;;;;4940146;29;20027;-87
2021/12/04 00:59:42;;;;;;;26.42;13.90;;;5.30;56.20;;;;;;4940149;29;20023;-91
2021/12/04 01:02:08;;;;;;;24.10;13.07;;;5.40;54.90;;;;;;4939832;29;20063;-91
2021/12/04 01:04:34;;;;;;;23.27;13.07;;;5.10;55.20;;;;;;4939771;29;20034;-85
2021/12/04 01:07:00;;;;;;;26.20;13.63;;;5.30;55.30;;;;;;4939814;29;20023;-89
2021/12/04 01:09:26;;;;;;;24.52;13.20;;;5.50;55.30;;;;;;4939753;29;20034;-86
2021/12/04 01:11:54;;;;;;;26.13;14.80;;;5.80;55.00;;;;;;4939520;29;20031;-85
2021/12/04 01:14:23;;;;;;;22.55;12.77;;;5.70;55.60;;;;;;4939790;29;20035;-88
2021/12/04 01:16:49;;;;;;;25.30;13.57;;;5.70;54.80;;;;;;4939434;29;20059;-85
2021/12/04 01:19:29;;;;;;;24.33;14.02;;;5.40;55.70;;;;;;4939913;29;20034;-89
2021/12/04 01:22:28;;;;;;;22.67;12.02;;;5.70;55.50;;;;;;4939762;29;20033;-85
2021/12/04 01:24:54;;;;;;;23.00;11.75;;;5.70;53.80;;;;;;4939568;29;20027;-84
2021/12/04 01:27:20;;;;;;;22.88;12.23;;;5.60;53.90;;;;;;4939274;29;20027;-86
2021/12/04 01:29:45;;;;;;;24.75;13.38;;;5.50;53.90;;;;;;4939764;29;20023;-84
2021/12/04 01:32:11;;;;;;;25.75;13.30;;;5.50;54.10;;;;;;4939499;29;20510;-90
2021/12/04 01:34:37;;;;;;;19.55;11.05;;;5.50;54.30;;;;;;4939607;29;20526;-84
2021/12/04 01:37:04;;;;;;;20.67;11.30;;;5.50;54.90;;;;;;4939409;29;20041;-88
2021/12/04 01:39:31;;;;;;;23.83;12.25;;;5.40;56.00;;;;;;4939493;29;20027;-87
2021/12/04 01:41:57;;;;;;;21.63;11.88;;;5.60;54.40;;;;;;4939183;29;20356;-85
2021/12/04 01:44:23;;;;;;;21.73;11.55;;;5.40;53.90;;;;;;4939418;29;20475;-86
2021/12/04 01:46:55;;;;;;;21.05;11.93;;;5.00;54.60;;;;;;4956831;29;20101;-88
2021/12/04 01:49:22;;;;;;;21.40;12.50;;;5.00;55.00;;;;;;4956137;29;20019;-83
2021/12/04 01:51:48;;;;;;;22.77;12.07;;;5.00;55.20;;;;;;4956537;29;20090;-88
2021/12/04 01:54:14;;;;;;;24.80;12.60;;;4.90;55.30;;;;;;4938980;29;20061;-85
2021/12/04 01:56:40;;;;;;;25.33;13.27;;;4.90;55.20;;;;;;4938835;29;20058;-86
2021/12/04 01:59:06;;;;;;;21.92;12.20;;;4.80;56.20;;;;;;4938796;29;20023;-82
2021/12/04 02:01:33;;;;;;;23.08;12.70;;;4.70;54.80;;;;;;4938934;29;20054;-81
2021/12/04 02:03:59;;;;;;;25.15;13.30;;;4.90;55.10;;;;;;4938999;29;20091;-82
2021/12/04 02:06:25;;;;;;;25.70;13.75;;;5.10;55.10;;;;;;4938114;29;20023;-85
2021/12/04 02:08:51;;;;;;;26.10;14.15;;;4.90;55.30;;;;;;4938548;29;20078;-81
2021/12/04 02:11:17;;;;;;;30.65;13.25;;;4.90;55.70;;;;;;4939003;29;20390;-81
2021/12/04 02:13:42;;;;;;;24.80;11.98;;;5.20;55.10;;;;;;4939032;29;20466;-87
2021/12/04 02:16:20;;;;;;;20.75;11.52;;;5.30;54.90;;;;;;4938968;29;20117;-88
2021/12/04 02:18:46;;;;;;;23.60;12.90;;;4.90;55.50;;;;;;4938813;29;20078;-87
2021/12/04 02:21:13;;;;;;;24.63;12.27;;;4.80;56.60;;;;;;4938791;29;20494;-88
2021/12/04 02:23:39;;;;;;;21.60;11.55;;;4.90;55.90;;;;;;4938529;29;20035;-87
2021/12/04 02:26:05;;;;;;;24.33;12.80;;;4.70;54.30;;;;;;4955831;29;20054;-87
2021/12/04 02:28:31;;;;;;;23.23;12.23;;;4.20;54.80;;;;;;4938411;29;20596;-82
2021/12/04 02:30:57;;;;;;;22.80;13.30;;;4.10;55.50;;;;;;4955395;29;20529;-81
2021/12/04 02:33:23;;;;;;;25.30;12.20;;;4.10;55.60;;;;;;4955237;29;20027;-86
2021/12/04 02:35:52;;;;;;;22.85;12.43;;;4.10;55.10;;;;;;4955115;29;20111;-86
2021/12/04 02:38:25;;;;;;;24.80;12.55;;;4.00;55.80;;;;;;4938652;29;20024;-81
2021/12/04 02:40:52;;;;;;;27.63;14.60;;;4.30;56.00;;;;;;4937996;29;20059;-82
2021/12/04 02:43:17;;;;;;;24.35;13.35;;;4.90;55.00;;;;;;4938221;29;20029;-83
2021/12/04 02:45:44;;;;;;;22.23;12.43;;;5.10;54.60;;;;;;4938106;29;20085;-87
2021/12/04 02:48:11;;;;;;;22.98;12.88;;;5.20;54.50;;;;;;4938623;29;20431;-89
2021/12/04 02:50:37;;;;;;;20.38;11.70;;;5.20;54.30;;;;;;4938274;29;20039;-88
2021/12/04 02:53:02;;;;;;;21.10;12.02;;;4.80;52.50;;;;;;4955020;29;20023;-87
2021/12/04 02:55:28;;;;;;;20.13;11.52;;;4.20;53.60;;;;;;4938346;29;20059;-88
2021/12/04 02:57:55;;;;;;;22.52;12.65;;;3.90;54.40;;;;;;4938407;29;20023;-82
2021/12/04 03:00:24;;;;;;;25.90;13.10;;;4.00;55.00;;;;;;4938761;29;20031;-88
2021/12/04 03:02:50;;;;;;;23.88;11.73;;;4.10;55.20;;;;;;4938265;29;20027;-88
2021/12/04 03:05:23;;;;;;;24.00;12.70;;;4.30;55.80;;;;;;4938422;29;20151;-83
2021/12/04 03:07:49;;;;;;;23.25;12.70;;;4.40;54.90;;;;;;4937969;29;20031;-89
2021/12/04 03:10:15;;;;;;;22.70;11.73;;;4.30;56.10;;;;;;4938158;29;20391;-88
2021/12/04 03:12:41;;;;;;;23.30;12.27;;;4.50;55.80;;;;;;4955003;29;20031;-88
2021/12/04 03:15:07;;;;;;;24.55;13.35;;;4.30;54.40;;;;;;4937849;29;20391;-82
2021/12/04 03:17:33;;;;;;;32.03;14.38;;;4.60;54.50;;;;;;4939627;29;20027;-80
2021/12/04 03:19:59;;;;;;;25.23;13.68;;;4.70;54.50;;;;;;4941285;29;20363;-81
2021/12/04 03:22:25;;;;;;;22.60;12.55;;;4.70;53.30;;;;;;4941324;29;20033;-80
2021/12/04 03:24:55;;;;;;;20.65;11.63;;;4.50;53.40;;;;;;4958439;28;20128;-80
2021/12/04 03:27:21;;;;;;;20.98;11.65;;;4.20;53.60;;;;;;4941380;29;20051;-88
2021/12/04 03:29:49;;;;;;;24.05;11.88;;;3.90;54.00;;;;;;4941688;29;20118;-80
2021/12/04 03:43:08;;;;;;;25.13;13.30;;;3.80;56.30;;;;;;4958146;29;20107;-81
2021/12/04 03:45:37;;;;;;;23.52;12.10;;;4.00;55.80;;;;;;4958313;29;20485;-87
2021/12/04 03:48:29;;;;;;;26.27;13.82;;;4.30;55.10;;;;;;4941227;29;20031;-89
2021/12/04 03:50:55;;;;;;;25.13;11.23;;;4.60;54.10;;;;;;4941311;29;20055;-81
2021/12/04 03:53:21;;;;;;;19.33;10.65;;;4.90;53.70;;;;;;4941409;29;20210;-90
2021/12/04 03:55:47;;;;;;;22.55;12.10;;;4.90;54.10;;;;;;4941035;29;20039;-87
2021/12/04 03:58:12;;;;;;;26.95;14.10;;;4.80;53.20;;;;;;4941103;29;20387;-86
2021/12/04 04:00:38;;;;;;;22.83;11.77;;;4.30;52.90;;;;;;4941291;29;20082;-81
2021/12/04 04:03:04;;;;;;;23.88;10.77;;;4.00;54.00;;;;;;4940637;29;20023;-81
2021/12/04 04:05:30;;;;;;;21.58;11.05;;;3.90;54.60;;;;;;4940850;29;20478;-80
2021/12/04 04:07:56;;;;;;;26.10;12.40;;;4.00;55.10;;;;;;4957415;29;20395;-81
2021/12/04 04:10:22;;;;;;;22.85;11.65;;;3.70;53.60;;;;;;4940644;29;20031;-81
2021/12/04 04:12:48;;;;;;;23.92;11.75;;;3.40;53.90;;;;;;4957811;29;20023;-80
2021/12/04 04:15:15;;;;;;;21.65;10.77;;;3.50;54.20;;;;;;4940693;29;20041;-89
2021/12/04 04:17:43;;;;;;;21.77;10.23;;;3.80;54.60;;;;;;4940800;29;20446;-89
2021/12/04 04:20:13;;;;;;;17.20;9.52;;;3.60;55.60;;;;;;4940495;29;20024;-88
2021/12/04 04:22:39;;;;;;;18.75;9.32;;;3.90;55.40;;;;;;4940842;29;20031;-89
2021/12/04 04:25:06;;;;;;;19.92;9.88;;;4.40;54.70;;;;;;4940959;29;20043;-91
2021/12/04 04:27:32;;;;;;;18.88;10.18;;;4.40;54.20;;;;;;4940293;28;20035;-87
2021/12/04 04:29:57;;;;;;;21.23;10.13;;;4.50;53.80;;;;;;4957976;29;20039;-86
2021/12/04 04:32:24;;;;;;;17.67;9.48;;;4.60;53.00;;;;;;4940828;29;20055;-90
2021/12/04 04:34:53;;;;;;;19.75;10.45;;;4.30;52.50;;;;;;4940543;29;20034;-90
2021/12/04 04:37:33;;;;;;;19.43;10.20;;;4.30;52.90;;;;;;4940539;29;20039;-90
2021/12/04 04:59:08;;;;;;;19.63;10.80;;;4.10;53.10;;;;;;4957315;29;20047;-91
2021/12/04 05:15:22;;;;;;;20.63;11.10;;;3.40;54.80;;;;;;4957096;29;20039;-90
2021/12/04 05:20:25;;;;;;;25.02;11.55;;;3.50;54.60;;;;;;4957010;29;20027;-89
2021/12/04 05:22:51;;;;;;;23.98;9.80;;;3.60;54.30;;;;;;4939624;29;20027;-90
2021/12/04 05:25:17;;;;;;;17.45;9.73;;;3.40;54.40;;;;;;4939605;29;20043;-89
2021/12/04 05:27:43;;;;;;;26.48;10.00;;;3.20;55.30;;;;;;4956876;29;20455;-91
2021/12/04 05:30:09;;;;;;;21.33;9.63;;;3.30;55.00;;;;;;4939865;29;20027;-89
2021/12/04 05:32:35;;;;;;;19.75;10.07;;;3.60;55.70;;;;;;4939233;29;20034;-90
2021/12/04 05:35:01;;;;;;;17.42;9.40;;;3.60;54.90;;;;;;4939629;29;20046;-89
2021/12/04 05:37:27;;;;;;;25.58;12.90;;;3.90;54.60;;;;;;4939269;29;20487;-90
2021/12/04 05:39:53;;;;;;;17.58;9.63;;;3.80;54.40;;;;;;4938434;29;20035;-88
2021/12/04 05:42:19;;;;;;;17.98;8.80;;;4.00;54.30;;;;;;4956680;29;20126;-89
2021/12/04 05:44:45;;;;;;;19.38;9.90;;;4.20;52.90;;;;;;4939484;29;20038;-85
2021/12/04 05:49:53;;;;;;;17.90;9.45;;;4.00;53.20;;;;;;4956418;29;20467;-90
2021/12/04 05:52:35;;;;;;;20.65;10.70;;;3.80;53.30;;;;;;4939316;29;20027;-87
2021/12/04 05:55:20;;;;;;;20.65;11.82;;;3.70;53.00;;;;;;4939601;29;20047;-89
2021/12/04 05:57:46;;;;;;;43.38;19.45;;;3.70;53.50;;;;;;4938830;29;20027;-85
2021/12/04 06:00:18;;;;;;;40.30;19.60;;;3.60;54.00;;;;;;4938996;29;20035;-83
2021/12/04 06:02:44;;;;;;;35.40;17.95;;;3.60;54.10;;;;;;4938706;29;20023;-82
2021/12/04 06:05:10;;;;;;;36.08;16.05;;;3.70;54.00;;;;;;4938436;29;20360;-84
2021/12/04 06:07:36;;;;;;;29.10;14.52;;;3.50;53.20;;;;;;4939337;29;20030;-82
2021/12/04 06:10:03;;;;;;;29.95;16.83;;;3.30;53.50;;;;;;4955771;29;20032;-84
2021/12/04 06:12:30;;;;;;;32.00;17.70;;;3.30;53.90;;;;;;4938753;29;20499;-80
2021/12/04 06:14:56;;;;;;;57.05;27.48;;;3.50;54.00;;;;;;4938388;29;20042;-81
2021/12/04 06:17:24;;;;;;;42.58;20.52;;;3.50;54.10;;;;;;4938680;29;20019;-82
2021/12/04 06:22:37;;;;;;;35.08;17.05;;;4.10;53.10;;;;;;4955839;29;20051;-82
2021/12/04 06:25:08;;;;;;;34.80;16.05;;;3.90;53.20;;;;;;4938284;29;20505;-87
2021/12/04 06:27:34;;;;;;;30.50;14.30;;;3.70;53.20;;;;;;4955517;29;20027;-88
2021/12/04 06:30:00;;;;;;;28.58;15.20;;;3.70;53.60;;;;;;4938645;29;20515;-86
2021/12/04 06:32:26;;;;;;;31.63;14.65;;;3.80;54.10;;;;;;4938346;29;20079;-86
2021/12/04 06:34:52;;;;;;;32.13;16.45;;;4.00;54.00;;;;;;4955412;29;20476;-84
2021/12/04 06:37:18;;;;;;;27.95;14.68;;;4.10;53.60;;;;;;4938730;29;20475;-83
2021/12/04 06:39:44;;;;;;;31.35;15.40;;;3.90;53.90;;;;;;4955565;29;20028;-88
2021/12/04 06:42:10;;;;;;;32.55;18.42;;;3.80;54.60;;;;;;4938492;29;20031;-88
2021/12/04 06:44:36;;;;;;;43.20;22.90;;;3.90;54.40;;;;;;4938256;29;20023;-88
2021/12/04 06:47:03;;;;;;;58.92;30.27;;;4.10;54.10;;;;;;4938576;29;20028;-87
2021/12/04 06:49:36;;;;;;;52.22;26.08;;;4.50;53.70;;;;;;4955528;29;20039;-88
2021/12/04 06:52:05;;;;;;;49.05;24.20;;;4.30;54.50;;;;;;4941099;29;20027;-85
2021/12/04 06:54:38;;;;;;;42.70;21.40;;;4.30;54.80;;;;;;4942214;29;20137;-86
2021/12/04 06:57:08;;;;;;;37.13;20.85;;;4.40;54.60;;;;;;4942577;29;20050;-87
2021/12/04 06:59:34;;;;;;;39.38;20.02;;;4.60;54.70;;;;;;4959318;29;20101;-88
2021/12/04 07:02:00;;;;;;;43.85;19.52;;;5.00;53.70;;;;;;4942117;29;20049;-81
2021/12/04 07:04:34;;;;;;;37.40;18.02;;;5.10;53.80;;;;;;4942068;29;20023;-88
2021/12/04 07:07:00;;;;;;;32.05;16.83;;;4.90;54.00;;;;;;4942068;29;20105;-82
2021/12/04 07:09:26;;;;;;;26.33;14.95;;;4.50;54.90;;;;;;4959374;29;20103;-83
2021/12/04 07:11:52;;;;;;;38.15;18.30;;;4.40;55.70;;;;;;4942418;29;20035;-82
2021/12/04 07:14:18;;;;;;;41.45;18.08;;;4.30;56.40;;;;;;4941725;29;20020;-82
2021/12/04 07:16:44;;;;;;;34.83;17.38;;;4.20;56.60;;;;;;4941394;29;20035;-82
2021/12/04 07:19:10;;;;;;;37.20;17.98;;;4.30;56.70;;;;;;4941363;29;20027;-81
2021/12/04 07:21:37;;;;;;;40.95;16.48;;;4.30;56.70;;;;;;4941717;29;20082;-87
2021/12/04 07:24:03;;;;;;;35.15;14.25;;;4.10;56.90;;;;;;4941447;29;20497;-81
2021/12/04 07:26:29;;;;;;;30.10;13.73;;;3.70;57.90;;;;;;4941454;29;20059;-79
2021/12/04 07:28:55;;;;;;;32.55;16.55;;;3.40;59.10;;;;;;4941490;29;20391;-85
2021/12/04 07:31:20;;;;;;;28.83;14.07;;;3.00;60.30;;;;;;4941726;29;20497;-87
2021/12/04 07:33:46;;;;;;;31.13;14.68;;;3.00;60.90;;;;;;4941223;29;20024;-82
2021/12/04 07:36:12;;;;;;;34.80;17.25;;;2.90;61.10;;;;;;4958571;29;20545;-84
2021/12/04 07:38:38;;;;;;;33.40;17.13;;;3.00;61.60;;;;;;4941380;29;20024;-88
2021/12/04 07:41:04;;;;;;;34.40;18.13;;;3.30;60.50;;;;;;4941312;29;20038;-88
2021/12/04 07:43:30;;;;;;;36.60;19.05;;;3.60;59.70;;;;;;4941270;29;20031;-87
2021/12/04 07:45:56;;;;;;;35.78;17.95;;;3.90;59.50;;;;;;4941880;29;20398;-88
2021/12/04 07:48:22;;;;;;;38.40;20.05;;;4.00;58.90;;;;;;4941443;29;20031;-81
2021/12/04 07:50:48;;;;;;;43.75;21.15;;;4.10;59.10;;;;;;4941204;29;20096;-80
2021/12/04 07:53:14;;;;;;;37.70;20.80;;;4.60;58.30;;;;;;4941268;29;20454;-81
2021/12/04 07:55:39;;;;;;;37.85;17.88;;;5.00;57.40;;;;;;4941142;29;20050;-81
2021/12/04 07:58:05;;;;;;;37.72;19.02;;;5.20;56.70;;;;;;4941479;29;20407;-90
2021/12/04 08:00:31;;;;;;;37.58;18.60;;;5.20;56.50;;;;;;4941501;29;20042;-91
2021/12/04 08:02:57;;;;;;;32.95;18.15;;;5.20;56.80;;;;;;4940539;29;20483;-81
2021/12/04 08:05:23;;;;;;;34.38;18.42;;;5.30;57.20;;;;;;4940686;29;20031;-92
2021/12/04 08:07:50;;;;;;;33.63;19.15;;;5.40;57.30;;;;;;4941559;29;20054;-87
2021/12/04 08:10:18;;;;;;;33.05;17.13;;;5.30;57.70;;;;;;4958876;29;20034;-86
2021/12/04 08:12:43;;;;;;;36.53;18.52;;;5.30;57.90;;;;;;4959407;29;20023;-90
2021/12/04 08:15:10;;;;;;;63.13;28.83;;;5.50;57.70;;;;;;4959810;29;20032;-93
2021/12/04 08:17:37;;;;;;;30.85;17.60;;;5.70;57.50;;;;;;4942449;29;20023;-90
2021/12/04 08:20:05;;;;;;;25.83;15.15;;;5.70;57.20;;;;;;4942717;29;20372;-91
2021/12/04 08:22:34;;;;;;;31.85;16.92;;;5.60;57.80;;;;;;4942270;29;20024;-81
2021/12/04 08:24:59;;;;;;;50.22;19.13;;;5.60;57.90;;;;;;4940308;28;20042;-79
2021/12/04 08:27:25;;;;;;;51.15;21.90;;;5.90;57.70;;;;;;4940338;29;20027;-84
2021/12/04 08:29:51;;;;;;;84.57;32.88;;;6.00;57.30;;;;;;4928083;29;20067;-82
2021/12/04 08:32:17;;;;;;;38.67;20.58;;;6.20;57.10;;;;;;4938450;29;20024;-81
2021/12/04 08:34:43;;;;;;;43.90;21.60;;;6.60;56.10;;;;;;4919722;29;20471;-80
2021/12/04 08:37:09;;;;;;;33.35;17.95;;;7.00;55.90;;;;;;4938239;29;20063;-79
2021/12/04 08:39:34;;;;;;;30.23;16.38;;;7.50;55.20;;;;;;4921204;29;20027;-84
2021/12/04 08:42:00;;;;;;;32.90;17.05;;;8.30;53.10;;;;;;4921221;29;20120;-84
2021/12/04 08:44:26;;;;;;;36.75;17.27;;;9.50;51.70;;;;;;4921457;29;20459;-83
2021/12/04 08:46:52;;;;;;;32.63;15.10;;;10.60;49.70;;;;;;4921253;29;20028;-83
2021/12/04 08:49:18;;;;;;;23.60;13.13;;;11.10;47.80;;;;;;4935808;29;20027;-80
2021/12/04 08:51:44;;;;;;;24.23;14.02;;;11.10;47.30;;;;;;4936022;29;20028;-82
2021/12/04 08:54:11;;;;;;;31.10;18.65;;;11.20;46.70;;;;;;4918995;29;20079;-80
2021/12/04 08:56:37;;;;;;;26.10;13.60;;;11.50;46.60;;;;;;4918168;29;20083;-82
2021/12/04 08:59:04;;;;;;;23.77;13.43;;;12.30;46.00;;;;;;4935767;29;20071;-83
2021/12/04 09:01:33;;;;;;;24.85;13.80;;;12.50;45.50;;;;;;4919402;29;20031;-83
2021/12/04 09:04:16;;;;;;;25.95;13.77;;;12.90;44.70;;;;;;4920605;29;20051;-83
2021/12/04 09:06:42;;;;;;;25.67;14.57;;;13.10;44.20;;;;;;4937569;29;20031;-83
2021/12/04 09:09:10;;;;;;;25.30;14.32;;;13.20;44.20;;;;;;4920498;29;20028;-84
2021/12/04 09:11:44;;;;;;;23.38;14.05;;;13.50;43.70;;;;;;4920570;29;20523;-83
2021/12/04 09:14:13;;;;;;;27.85;13.98;;;14.00;43.30;;;;;;4917469;29;20032;-82
2021/12/04 09:16:39;;;;;;;21.17;13.38;;;13.70;43.10;;;;;;4920011;29;20542;-83
2021/12/04 09:19:05;;;;;;;24.27;14.13;;;13.60;43.40;;;;;;4920414;29;20059;-84
2021/12/04 09:21:34;;;;;;;29.95;15.98;;;13.40;44.10;;;;;;4937422;29;20064;-85
2021/12/04 09:24:16;;;;;;;31.83;17.25;;;13.40;43.20;;;;;;4920546;29;20031;-84
2021/12/04 09:29:25;;;;;;;27.67;15.52;;;13.30;43.70;;;;;;4937351;29;20548;-85
2021/12/04 10:02:47;;;;;;;31.15;18.35;;;12.00;46.40;;;;;;4970884;23;20063;-88
2021/12/04 10:05:46;;;;;;;33.60;21.08;;;12.60;45.60;;;;;;4939015;29;20023;-86
2021/12/04 10:33:55;;;;;;;32.45;20.00;;;9.20;50.40;;;;;;5090810;23;20049;-91
2021/12/04 10:36:49;;;;;;;35.58;20.63;;;9.90;50.80;;;;;;4918039;29;20111;-88
2021/12/04 10:39:16;;;;;;;33.00;18.98;;;10.20;49.90;;;;;;4915837;29;20055;-87
2021/12/04 10:41:44;;;;;;;32.63;20.10;;;9.70;50.10;;;;;;4901485;29;20412;-88
2021/12/04 10:54:53;;;;;;;33.38;20.98;;;9.70;51.80;;;;;;4948615;23;20514;-85
2021/12/04 11:28:32;;;;;;;32.42;19.90;;;7.40;57.40;;;;;;4933759;29;20028;-88
2021/12/04 11:36:55;;;;;;;37.28;20.08;;;8.20;55.50;;;;;;4935121;29;20091;-88
2021/12/04 11:42:09;;;;;;;30.00;18.10;;;8.10;54.10;;;;;;4937402;29;20479;-87
2021/12/04 11:47:10;;;;;;;29.73;18.45;;;8.10;54.90;;;;;;4936520;23;20055;-86
2021/12/04 11:50:18;;;;;;;32.25;19.00;;;7.70;55.00;;;;;;4918755;29;20028;-86
2021/12/04 11:52:53;;;;;;;30.88;18.85;;;7.10;55.60;;;;;;5152935;23;20026;-88
2021/12/04 11:55:21;;;;;;;27.50;17.75;;;7.10;57.20;;;;;;4918646;29;20184;-86
2021/12/04 11:57:48;;;;;;;31.15;16.30;;;7.40;56.20;;;;;;4902957;29;20023;-86
2021/12/04 12:00:18;;;;;;;30.50;15.90;;;8.10;54.00;;;;;;4915794;29;20376;-87
2021/12/04 12:02:47;;;;;;;33.33;17.80;;;7.60;54.10;;;;;;4954941;23;20043;-84
2021/12/04 12:05:46;;;;;;;38.22;21.88;;;7.50;54.60;;;;;;4925311;29;20020;-86
2021/12/04 12:08:43;;;;;;;74.72;32.05;;;7.00;55.10;;;;;;4922749;29;20031;-87
2021/12/04 12:11:14;;;;;;;88.97;40.20;;;6.60;56.90;;;;;;4925279;29;20035;-85
2021/12/04 12:16:52;;;;;;;44.17;22.13;;;6.50;57.90;;;;;;4964345;23;20106;-88
2021/12/04 12:20:00;;;;;;;62.22;28.35;;;6.80;57.60;;;;;;4939895;29;20366;-89
2021/12/04 12:23:06;;;;;;;36.80;20.75;;;6.90;56.80;;;;;;4924671;29;20023;-86
2021/12/04 12:44:05;;;;;;;29.17;16.02;;;7.30;56.40;;;;;;4957530;29;20038;-87
2021/12/04 12:46:45;;;;;;;34.53;19.67;;;7.30;55.20;;;;;;4939821;29;20114;-86
2021/12/04 12:49:23;;;;;;;;;;;7.10;56.60;;;;;;4939739;29;20027;-85
2021/12/04 12:52:19;;;;;;;32.53;18.70;;;7.60;56.30;;;;;;4939567;29;19906;-85
2021/12/04 12:54:57;;;;;;;33.15;17.27;;;8.10;55.10;;;;;;4935257;29;20139;-87
2021/12/04 12:57:58;;;;;;;36.22;20.75;;;8.50;54.40;;;;;;4919183;29;20102;-85
2021/12/04 13:12:10;;;;;;;66.95;28.52;;;9.60;52.00;;;;;;4930837;29;20059;-85
2021/12/04 13:14:41;;;;;;;74.63;31.70;;;10.00;50.70;;;;;;4913698;29;20028;-84
2021/12/04 13:17:13;;;;;;;52.63;24.63;;;10.30;49.80;;;;;;4919336;29;20456;-86
2021/12/04 13:19:43;;;;;;;45.92;21.77;;;10.10;50.10;;;;;;4934714;29;20127;-86
2021/12/04 13:22:30;;;;;;;39.30;21.58;;;9.70;50.10;;;;;;4919030;29;20157;-84
2021/12/04 13:24:59;;;;;;;34.20;19.92;;;9.90;50.30;;;;;;4919090;29;20036;-85
2021/12/04 13:30:16;;;;;;;81.80;37.58;;;10.30;50.30;;;;;;4934809;29;20147;-87
2021/12/04 13:32:45;;;;;;;87.03;35.70;;;10.40;49.50;;;;;;4908670;29;20106;-86
2021/12/04 13:35:21;;;;;;;51.65;23.73;;;10.20;49.70;;;;;;4909078;29;20031;-87
2021/12/04 13:37:49;;;;;;;88.90;40.67;;;10.50;49.30;;;;;;4911202;29;20377;-86
2021/12/04 13:40:19;;;;;;;110.13;44.75;;;10.80;48.30;;;;;;4930941;28;20094;-86
2021/12/04 13:42:45;;;;;;;90.70;34.88;;;10.70;48.10;;;;;;4936412;29;20028;-84
2021/12/04 13:45:17;;;;;;;76.85;29.42;;;10.40;48.90;;;;;;4916035;29;20496;-82
2021/12/04 13:47:57;;;;;;;55.58;27.30;;;10.30;49.40;;;;;;4900921;29;20043;-85
2021/12/04 13:53:06;;;;;;;40.72;22.85;;;10.20;49.10;;;;;;4936833;29;20046;-85
2021/12/04 13:55:38;;;;;;;39.05;20.45;;;10.10;49.80;;;;;;4919457;29;20427;-85
2021/12/04 13:58:05;;;;;;;34.70;21.05;;;10.10;49.80;;;;;;4919868;29;20039;-86
2021/12/04 14:00:31;;;;;;;49.60;25.85;;;10.30;49.70;;;;;;4935760;29;20038;-87
2021/12/04 14:02:57;;;;;;;51.88;27.40;;;10.40;49.60;;;;;;4920058;29;20110;-87
2021/12/04 14:05:26;;;;;;;35.75;20.85;;;10.10;50.30;;;;;;4915622;29;20039;-87
2021/12/04 14:08:24;;;;;;;40.95;21.63;;;10.00;50.40;;;;;;4953609;23;20094;31
2021/12/04 14:14:09;;;;;;;36.75;21.48;;;10.00;50.10;;;;;;4917635;29;20435;-89
2021/12/04 14:16:35;;;;;;;34.35;18.98;;;9.90;50.50;;;;;;4917371;29;20134;-89
2021/12/04 14:19:14;;;;;;;33.80;19.75;;;9.80;50.20;;;;;;4914927;29;20107;-88
2021/12/04 14:22:08;;;;;;;38.78;20.63;;;9.80;50.20;;;;;;4908334;29;20375;-92
2021/12/04 14:24:59;;;;;;;40.92;22.55;;;9.70;50.10;;;;;;4932074;29;20024;-87
2021/12/04 14:27:28;;;;;;;50.53;27.58;;;9.70;50.70;;;;;;4932172;29;20356;-88
2021/12/04 14:33:23;;;;;;;68.70;31.50;;;9.60;50.90;;;;;;4917974;29;20047;-90
2021/12/04 14:35:51;;;;;;;41.83;21.80;;;9.50;50.50;;;;;;4945142;23;20134;-87
2021/12/04 14:38:24;;;;;;;55.28;26.30;;;8.90;52.00;;;;;;4938847;29;20507;-85
2021/12/04 14:40:58;;;;;;;43.97;21.25;;;9.00;52.40;;;;;;4938174;29;20029;-87
2021/12/04 14:43:52;;;;;;;44.88;22.25;;;8.80;52.20;;;;;;4937462;29;20027;-89
2021/12/04 14:46:22;;;;;;;37.90;22.05;;;8.80;52.70;;;;;;4954882;29;20110;-86
2021/12/04 14:48:51;;;;;;;42.67;22.67;;;9.20;52.30;;;;;;4937981;29;20031;-86
2021/12/04 14:52:17;;;;;;;55.55;28.45;;;9.30;52.00;;;;;;4935818;29;20046;-88
2021/12/04 14:54:43;;;;;;;44.45;25.52;;;9.50;51.70;;;;;;4903718;29;20454;-86
2021/12/04 14:57:25;;;;;;;32.40;20.48;;;9.30;52.20;;;;;;4916653;29;20052;-88
2021/12/04 15:03:12;;;;;;;40.47;23.92;;;7.80;55.30;;;;;;4962049;23;20063;-86
2021/12/04 15:06:00;;;;;;;53.55;30.70;;;7.70;56.10;;;;;;4938183;29;20031;-87
2021/12/04 15:08:29;;;;;;;77.57;43.70;;;7.90;55.90;;;;;;4937979;29;20467;-88
2021/12/04 15:11:11;;;;;;;60.35;35.13;;;8.40;55.10;;;;;;4937869;29;20534;-89
2021/12/04 15:13:42;;;;;;;91.45;51.40;;;8.60;54.00;;;;;;4958338;28;20027;-86
2021/12/04 15:16:13;;;;;;;67.55;38.30;;;8.80;54.00;;;;;;4941130;29;20134;-89
2021/12/04 15:18:40;;;;;;;54.80;32.25;;;8.90;53.90;;;;;;4940766;29;20034;-86
2021/12/04 15:21:14;;;;;;;54.85;31.42;;;8.30;54.60;;;;;;4940959;29;20031;-84
2021/12/04 15:26:58;;;;;;;61.13;35.63;;;7.50;56.60;;;;;;5036354;23;20055;-87
2021/12/04 15:29:28;;;;;;;60.85;37.83;;;7.50;56.90;;;;;;5008496;23;20081;-88
2021/12/04 15:32:01;;;;;;;84.55;54.33;;;7.50;56.90;;;;;;4941403;29;20031;-88
2021/12/04 15:37:49;;;;;;;77.10;46.28;;;7.70;57.00;;;;;;4980340;23;20062;-87
2021/12/04 15:55:04;;;;;;;67.18;38.20;;;8.10;55.60;;;;;;4957794;29;20086;-86
2021/12/04 15:57:52;;;;;;;69.30;38.47;;;7.90;56.50;;;;;;4940974;29;20063;-87
2021/12/04 16:00:18;;;;;;;57.45;33.65;;;8.00;56.40;;;;;;4928613;29;20032;-86
2021/12/04 16:02:49;;;;;;;56.38;33.47;;;7.90;56.20;;;;;;4921743;29;20038;-87
2021/12/04 16:05:19;;;;;;;64.95;34.58;;;8.10;56.10;;;;;;4921573;29;20094;-85
2021/12/04 16:07:49;;;;;;;61.05;36.55;;;8.50;55.20;;;;;;4921621;29;20046;-87
2021/12/04 16:10:21;;;;;;;;;;;8.70;54.60;;;;;;4922330;29;20032;-90
2021/12/04 16:13:11;;;;;;;60.22;35.17;;;8.70;54.90;;;;;;4938517;29;19917;-87
2021/12/04 16:15:38;;;;;;;58.75;34.60;;;8.60;54.70;;;;;;4906831;29;20044;-85
2021/12/04 16:19:00;;;;;;;66.00;37.08;;;8.30;55.20;;;;;;4902827;29;20049;-92
2021/12/04 16:21:26;;;;;;;58.40;33.63;;;8.30;55.20;;;;;;4903118;29;20354;-87
2021/12/04 16:23:53;;;;;;;56.38;32.03;;;8.40;55.40;;;;;;4902100;29;20392;-87
2021/12/04 16:26:23;;;;;;;60.33;32.65;;;8.10;55.60;;;;;;4902617;29;20038;-87
2021/12/04 16:29:03;;;;;;;54.90;33.05;;;8.10;55.80;;;;;;4903366;29;20078;-87
2021/12/04 16:38:02;;;;;;;63.72;35.63;;;8.30;55.50;;;;;;4974056;23;20074;-86
2021/12/04 16:40:34;;;;;;;63.92;34.90;;;8.10;55.70;;;;;;4960760;23;20028;-90
2021/12/04 16:43:09;;;;;;;59.42;33.92;;;8.20;56.00;;;;;;4940595;29;20031;-93
2021/12/04 16:45:55;;;;;;;60.03;34.67;;;8.10;55.80;;;;;;4940582;29;20428;-85
2021/12/04 16:48:27;;;;;;;63.85;34.38;;;7.80;56.30;;;;;;4940481;29;20070;-90
2021/12/04 16:59:15;;;;;;;63.22;33.10;;;6.90;58.20;;;;;;4977278;28;20027;-92
2021/12/04 17:01:47;;;;;;;61.42;32.28;;;6.70;59.10;;;;;;4959913;28;20034;-84
2021/12/04 17:05:08;;;;;;;62.58;34.30;;;6.70;59.00;;;;;;4960219;28;20058;-95
2021/12/04 17:07:34;;;;;;;62.03;33.80;;;6.90;59.20;;;;;;4613021;28;10000168;-84
2021/12/04 17:10:00;;;;;;;62.38;33.63;;;7.00;58.80;;;;;;4939385;29;20046;-85
2021/12/04 17:12:26;;;;;;;57.40;33.90;;;7.10;59.10;;;;;;4939621;29;20471;-84